Time;durP1;ratioP1;P1;durP2;ratioP2;P2;SDS_P1;SDS_P2;PMS_P1;PMS_P2;Temp;Humidity;BMP_temperature;BMP_pressure;BME280_temperature;BME280_humidity;BME280_pressure;Samples;Min_cycle;Max_cycle;Signal;HPM_P1;HPM_P2
2022/08/03 00:01:40;;;;;;;;;;;16.70;99.90;;;;;;4942365;28;19921;-77
2022/08/03 00:04:07;;;;;;;;;;;16.70;99.90;;;;;;4942904;28;19918;-76
2022/08/03 00:06:33;;;;;;;;;;;16.70;99.90;;;;;;4941396;28;19973;-77
2022/08/03 00:08:58;;;;;;;;;;;16.70;99.90;;;;;;4941909;28;19929;-76
2022/08/03 00:11:25;;;;;;;;;;;16.70;99.90;;;;;;4940079;28;20379;-77
2022/08/03 00:13:50;;;;;;;;;;;16.70;99.90;;;;;;4923538;28;19968;-77
2022/08/03 00:16:16;;;;;;;;;;;16.80;99.90;;;;;;4952867;28;19922;-77
2022/08/03 00:18:41;;;;;;;;;;;16.80;99.90;;;;;;4961377;28;20376;-77
2022/08/03 00:21:07;;;;;;;;;;;16.80;99.90;;;;;;4945997;28;19914;-77
2022/08/03 00:23:33;;;;;;;;;;;16.70;99.90;;;;;;4942573;28;19929;-77
2022/08/03 00:25:58;;;;;;;;;;;16.70;99.90;;;;;;4943829;28;19921;-77
2022/08/03 00:28:24;;;;;;;;;;;16.70;99.90;;;;;;4926058;28;20194;-77
2022/08/03 00:30:49;;;;;;;;;;;16.70;99.90;;;;;;4925613;28;19921;-77
2022/08/03 00:33:15;;;;;;;;;;;16.70;99.90;;;;;;4937394;28;19953;-77
2022/08/03 00:35:41;;;;;;;;;;;16.70;99.90;;;;;;4921499;28;19918;-77
2022/08/03 00:38:06;;;;;;;;;;;16.70;99.90;;;;;;4938683;28;19918;-77
2022/08/03 00:40:32;;;;;;;;;;;16.70;99.90;;;;;;4940246;28;20132;-76
2022/08/03 00:42:59;;;;;;;;;;;16.70;99.90;;;;;;4943433;28;19913;-77
2022/08/03 00:45:26;;;;;;;;;;;16.70;99.90;;;;;;4939937;28;19913;-76
2022/08/03 00:47:52;;;;;;;;;;;16.70;99.90;;;;;;4943510;28;19918;-77
2022/08/03 00:50:19;;;;;;;;;;;16.70;99.90;;;;;;4938616;28;19924;-77
2022/08/03 00:52:45;;;;;;;;;;;16.90;99.90;;;;;;4938653;28;19918;-76
2022/08/03 00:55:11;;;;;;;;;;;16.90;99.90;;;;;;4941257;28;20423;-77
2022/08/03 00:57:36;;;;;;;;;;;16.90;99.90;;;;;;4922978;28;19914;-77
2022/08/03 01:00:03;;;;;;;;;;;16.90;99.90;;;;;;4940165;28;20361;-77
2022/08/03 01:02:29;;;;;;;;;;;17.00;99.90;;;;;;4932457;28;19918;-77
2022/08/03 01:04:55;;;;;;;;;;;17.10;99.90;;;;;;4947042;28;20305;-76
2022/08/03 01:07:25;;;;;;;;;;;17.20;99.90;;;;;;4961777;28;20392;-78
2022/08/03 01:09:54;;;;;;;;;;;17.30;99.90;;;;;;4945691;28;19992;-76
2022/08/03 01:12:19;;;;;;;;;;;17.30;99.90;;;;;;4938619;28;19918;-77
2022/08/03 01:14:50;;;;;;;;;;;17.40;99.90;;;;;;4941798;28;19918;-76
2022/08/03 01:17:24;;;;;;;;;;;17.40;99.90;;;;;;4952101;28;19918;-77
2022/08/03 01:19:55;;;;;;;;;;;17.50;99.90;;;;;;4938583;28;20789;-76
2022/08/03 01:22:59;;;;;;;;;;;17.60;99.90;;;;;;4941557;28;20181;-76
2022/08/03 01:25:43;;;;;;;;;;;17.70;99.90;;;;;;4881600;29;19918;-77
2022/08/03 01:28:37;;;;;;;;;;;17.70;99.90;;;;;;4880079;29;19935;-76
2022/08/03 01:31:05;;;;;;;;;;;17.70;99.90;;;;;;4915195;28;20052;-78
2022/08/03 01:33:36;;;;;;;;;;;17.80;99.90;;;;;;4926842;28;19925;-77
2022/08/03 01:36:06;;;;;;;;;;;17.80;99.90;;;;;;4932885;28;19972;-77
2022/08/03 01:38:33;;;;;;;;;;;17.80;99.90;;;;;;4934488;28;19914;-76
2022/08/03 01:41:04;;;;;;;;;;;17.80;99.90;;;;;;4942142;28;20366;-76
2022/08/03 01:43:30;;;;;;;;;;;17.90;99.90;;;;;;4947016;28;19921;-77
2022/08/03 01:45:56;;;;;;;;;;;17.80;99.90;;;;;;4944559;28;19914;-77
2022/08/03 01:48:22;;;;;;;;;;;17.80;99.90;;;;;;4942577;28;19922;-77
2022/08/03 01:50:48;;;;;;;;;;;17.80;99.90;;;;;;4942564;28;19925;-77
2022/08/03 01:53:15;;;;;;;;;;;17.80;99.90;;;;;;4942702;28;20023;-77
2022/08/03 01:55:43;;;;;;;;;;;17.80;99.90;;;;;;4926346;28;20278;-77
2022/08/03 01:58:11;;;;;;;;;;;17.80;99.90;;;;;;4930785;28;19926;-77
2022/08/03 02:00:37;;;;;;;;;;;17.90;99.90;;;;;;4942059;28;20282;-77
2022/08/03 02:03:06;;;;;;;;;;;18.00;99.90;;;;;;4934984;28;19972;-77
2022/08/03 02:05:32;;;;;;;;;;;18.00;99.90;;;;;;4936215;28;20381;-77
2022/08/03 02:07:59;;;;;;;;;;;18.10;99.90;;;;;;4933941;28;20361;-77
2022/08/03 02:10:26;;;;;;;;;;;18.10;99.90;;;;;;4940960;28;19918;-77
2022/08/03 02:12:52;;;;;;;;;;;18.20;99.90;;;;;;4939081;28;19928;-76
2022/08/03 02:15:18;;;;;;;;;;;18.20;99.90;;;;;;4936242;28;20507;-77
2022/08/03 02:17:45;;;;;;;;;;;18.40;99.90;;;;;;4922444;28;19980;-76
2022/08/03 02:20:11;;;;;;;;;;;18.40;99.90;;;;;;4937345;28;20004;-77
2022/08/03 02:22:40;;;;;;;;;;;18.40;99.90;;;;;;4937918;28;19919;-78
2022/08/03 02:25:07;;;;;;;;;;;18.50;99.90;;;;;;4937211;28;19976;-77
2022/08/03 02:27:33;;;;;;;;;;;18.50;99.90;;;;;;4925526;28;20366;-77
2022/08/03 02:30:02;;;;;;;;;;;18.50;99.90;;;;;;4946711;28;19925;-77
2022/08/03 02:32:31;;;;;;;;;;;18.50;99.90;;;;;;4935081;28;19929;-77
2022/08/03 02:34:58;;;;;;;;;;;18.50;99.90;;;;;;4937884;28;20011;-76
2022/08/03 02:37:26;;;;;;;;;;;18.50;99.90;;;;;;4931626;28;20314;-78
2022/08/03 02:39:56;;;;;;;;;;;18.50;99.90;;;;;;4937776;28;19996;-77
2022/08/03 02:42:23;;;;;;;;;;;18.50;99.90;;;;;;4951332;28;19922;-76
2022/08/03 02:44:50;;;;;;;;;;;18.50;99.90;;;;;;4946087;28;19929;-76
2022/08/03 02:47:19;;;;;;;;;;;18.50;99.90;;;;;;4936342;28;19918;-77
2022/08/03 02:49:46;;;;;;;;;;;18.50;99.90;;;;;;4936972;28;20058;-76
2022/08/03 02:52:12;;;;;;;;;;;18.50;99.90;;;;;;4939366;28;19922;-76
2022/08/03 02:54:38;;;;;;;;;;;18.50;99.90;;;;;;4941183;28;19962;-77
2022/08/03 02:57:06;;;;;;;;;;;18.50;99.90;;;;;;4946641;28;20448;-77
2022/08/03 02:59:33;;;;;;;;;;;18.50;99.90;;;;;;4930719;28;19918;-77
2022/08/03 03:01:59;;;;;;;;;;;18.50;99.90;;;;;;4942823;28;19929;-76
2022/08/03 03:04:26;;;;;;;;;;;18.50;99.90;;;;;;4939339;28;19914;-76
2022/08/03 03:06:52;;;;;;;;;;;18.50;99.90;;;;;;4949062;28;20020;-76
2022/08/03 03:09:17;;;;;;;;;;;18.50;99.90;;;;;;4935842;28;19926;-76
2022/08/03 03:11:43;;;;;;;;;;;18.40;99.90;;;;;;4942196;28;19918;-76
2022/08/03 03:14:10;;;;;;;;;;;18.50;99.90;;;;;;4941509;28;20980;-75
2022/08/03 03:16:35;;;;;;;;;;;18.50;99.90;;;;;;4943750;28;19917;-76
2022/08/03 03:19:01;;;;;;;;;;;18.50;99.90;;;;;;4940194;28;19914;-77
2022/08/03 03:21:28;;;;;;;;;;;18.50;99.90;;;;;;4940705;28;19918;-76
2022/08/03 03:23:54;;;;;;;;;;;18.50;99.90;;;;;;4942659;28;20005;-76
2022/08/03 03:26:19;;;;;;;;;;;18.50;99.90;;;;;;4941153;28;21224;-77
2022/08/03 03:28:45;;;;;;;;;;;18.40;99.90;;;;;;4946274;28;19927;-77
2022/08/03 03:31:11;;;;;;;;;;;18.40;99.90;;;;;;4941343;28;20012;-76
2022/08/03 03:33:37;;;;;;;;;;;18.40;99.90;;;;;;4937746;28;19918;-76
2022/08/03 03:36:03;;;;;;;;;;;18.40;99.90;;;;;;4940589;28;20005;-76
2022/08/03 03:38:29;;;;;;;;;;;18.40;99.90;;;;;;4927152;28;20395;-76
2022/08/03 03:40:55;;;;;;;;;;;18.40;99.90;;;;;;4941966;28;19922;-76
2022/08/03 03:43:22;;;;;;;;;;;18.30;99.90;;;;;;4941165;28;19918;-76
2022/08/03 03:45:48;;;;;;;;;;;18.30;99.90;;;;;;4940187;28;20270;-76
2022/08/03 03:48:13;;;;;;;;;;;18.20;99.90;;;;;;4941641;28;20493;-75
2022/08/03 03:50:39;;;;;;;;;;;18.20;99.90;;;;;;4936804;28;19929;-75
2022/08/03 03:53:07;;;;;;;;;;;18.20;99.90;;;;;;4939985;28;20780;-76
2022/08/03 03:55:33;;;;;;;;;;;18.20;99.90;;;;;;4927403;28;19918;-75
2022/08/03 03:57:58;;;;;;;;;;;18.10;99.90;;;;;;4943999;28;21411;-75
2022/08/03 04:00:24;;;;;;;;;;;18.10;99.90;;;;;;4941440;28;19914;-76
2022/08/03 04:02:49;;;;;;;;;;;18.10;99.90;;;;;;4941769;28;20510;-76
2022/08/03 04:11:00;;;;;;;;;;;18.10;99.90;;;;;;4944362;28;20116;-76
2022/08/03 04:13:52;;;;;;;;;;;18.10;99.90;;;;;;4943171;28;20008;-76
2022/08/03 04:16:19;;;;;;;;;;;18.10;99.90;;;;;;4936185;28;19921;-76
2022/08/03 04:18:48;;;;;;;;;;;18.10;99.90;;;;;;4949815;28;20091;-76
2022/08/03 04:21:15;;;;;;;;;;;18.10;99.90;;;;;;4940960;28;20392;-76
2022/08/03 04:23:43;;;;;;;;;;;18.10;99.90;;;;;;4939703;28;19914;-75
2022/08/03 04:26:10;;;;;;;;;;;18.10;99.90;;;;;;4941341;28;19914;-76
2022/08/03 04:28:38;;;;;;;;;;;18.10;99.90;;;;;;4942675;28;19940;-76
2022/08/03 04:31:05;;;;;;;;;;;18.20;99.90;;;;;;4940467;28;20338;-75
2022/08/03 04:33:32;;;;;;;;;;;18.10;99.90;;;;;;4942006;28;19972;-76
2022/08/03 04:35:58;;;;;;;;;;;18.20;99.90;;;;;;4940985;28;19914;-75
2022/08/03 04:38:24;;;;;;;;;;;18.20;99.90;;;;;;4939886;28;20404;-77
2022/08/03 04:40:51;;;;;;;;;;;18.20;99.90;;;;;;4940809;28;19918;-76
2022/08/03 04:43:17;;;;;;;;;;;18.20;99.90;;;;;;4940858;28;20018;-76
2022/08/03 04:45:45;;;;;;;;;;;18.30;99.90;;;;;;4941255;28;20008;-76
2022/08/03 04:48:12;;;;;;;;;;;18.20;99.90;;;;;;4939949;28;20268;-76
2022/08/03 04:50:39;;;;;;;;;;;18.20;99.90;;;;;;4940888;28;19918;-76
2022/08/03 04:53:05;;;;;;;;;;;18.30;99.90;;;;;;4940630;28;20388;-76
2022/08/03 04:55:31;;;;;;;;;;;18.30;99.90;;;;;;4934154;28;19928;-76
2022/08/03 04:57:58;;;;;;;;;;;18.30;99.90;;;;;;4942612;28;19914;-76
2022/08/03 05:00:24;;;;;;;;;;;18.40;99.90;;;;;;4949110;28;19918;-76
2022/08/03 05:02:49;;;;;;;;;;;18.40;99.90;;;;;;4958064;28;19985;-76
2022/08/03 05:05:15;;;;;;;;;;;18.40;99.90;;;;;;4949704;28;20107;-76
2022/08/03 05:07:41;;;;;;;;;;;18.50;99.90;;;;;;4925774;28;19914;-76
2022/08/03 05:10:08;;;;;;;;;;;18.50;99.90;;;;;;4924352;28;21390;-76
2022/08/03 05:12:33;;;;;;;;;;;18.50;99.90;;;;;;4941808;28;19918;-76
2022/08/03 05:14:59;;;;;;;;;;;18.60;99.90;;;;;;4939470;28;19914;-76
2022/08/03 05:17:25;;;;;;;;;;;18.60;99.90;;;;;;4955483;28;19913;-76
2022/08/03 05:19:51;;;;;;;;;;;18.70;99.90;;;;;;4938724;28;19941;-76
2022/08/03 05:22:16;;;;;;;;;;;18.70;99.90;;;;;;4940769;28;19914;-76
2022/08/03 05:24:42;;;;;;;;;;;18.70;99.90;;;;;;4940807;28;19918;-76
2022/08/03 05:27:07;;;;;;;;;;;18.70;99.90;;;;;;4942622;28;20366;-76
2022/08/03 05:29:33;;;;;;;;;;;18.80;99.90;;;;;;4944232;28;20032;-76
2022/08/03 05:32:00;;;;;;;;;;;18.80;99.90;;;;;;4945971;28;19928;-76
2022/08/03 05:34:26;;;;;;;;;;;18.80;99.90;;;;;;4938477;28;19928;-76
2022/08/03 05:36:51;;;;;;;;;;;18.80;99.90;;;;;;4938797;28;20344;-76
2022/08/03 05:39:17;;;;;;;;;;;18.90;99.90;;;;;;4940793;28;21079;-76
2022/08/03 05:41:42;;;;;;;;;;;19.00;99.90;;;;;;4939056;28;19921;-76
2022/08/03 05:44:08;;;;;;;;;;;19.00;99.90;;;;;;4936390;28;20692;-76
2022/08/03 05:46:33;;;;;;;;;;;19.00;99.90;;;;;;4944750;28;19953;-75
2022/08/03 05:48:59;;;;;;;;;;;19.00;99.90;;;;;;4923630;28;20290;-76
2022/08/03 05:51:24;;;;;;;;;;;19.00;99.90;;;;;;4926330;28;19921;-75
2022/08/03 05:53:50;;;;;;;;;;;19.00;99.90;;;;;;4951673;28;19918;-77
2022/08/03 05:56:15;;;;;;;;;;;19.10;99.90;;;;;;4952751;28;20049;-76
2022/08/03 05:58:46;;;;;;;;;;;19.10;99.90;;;;;;4950407;28;20523;-75
2022/08/03 06:01:12;;;;;;;;;;;19.10;99.90;;;;;;4949431;28;20313;-76
2022/08/03 06:03:38;;;;;;;;;;;19.20;99.90;;;;;;4949364;28;20373;-75
2022/08/03 06:06:04;;;;;;;;;;;19.20;99.90;;;;;;4952362;28;19933;-76
2022/08/03 06:08:29;;;;;;;;;;;19.20;99.90;;;;;;4951262;28;19921;-75
2022/08/03 06:10:55;;;;;;;;;;;19.10;99.90;;;;;;4947674;28;19917;-75
2022/08/03 06:13:20;;;;;;;;;;;19.10;99.90;;;;;;4948009;28;19918;-75
2022/08/03 06:15:46;;;;;;;;;;;19.00;99.90;;;;;;4949056;28;19913;-76
2022/08/03 06:18:11;;;;;;;;;;;19.10;99.90;;;;;;4947273;28;19918;-77
2022/08/03 06:20:37;;;;;;;;;;;19.10;99.90;;;;;;4958844;28;19988;-76
2022/08/03 06:23:02;;;;;;;;;;;19.20;99.90;;;;;;4956464;28;20165;-76
2022/08/03 06:25:29;;;;;;;;;;;19.20;99.90;;;;;;4972169;28;19918;-75
2022/08/03 06:27:55;;;;;;;;;;;19.20;99.90;;;;;;4960800;28;19934;-74
2022/08/03 06:30:20;;;;;;;;;;;19.30;99.90;;;;;;4964499;28;19921;-75
2022/08/03 06:32:46;;;;;;;;;;;19.30;99.90;;;;;;4962028;28;20153;-75
2022/08/03 06:35:11;;;;;;;;;;;19.40;99.90;;;;;;4955772;28;19913;-76
2022/08/03 06:37:41;;;;;;;;;;;19.40;99.90;;;;;;4955923;28;20093;-75
2022/08/03 06:40:07;;;;;;;;;;;19.40;99.90;;;;;;4959805;28;20384;-76
2022/08/03 06:42:33;;;;;;;;;;;19.50;99.90;;;;;;4958367;28;19918;-76
2022/08/03 06:44:58;;;;;;;;;;;19.60;99.90;;;;;;4954731;28;19918;-76
2022/08/03 06:47:24;;;;;;;;;;;19.60;99.90;;;;;;4961956;28;19914;-76
2022/08/03 06:49:49;;;;;;;;;;;19.70;99.90;;;;;;4956349;28;19978;-76
2022/08/03 06:52:15;;;;;;;;;;;19.80;99.90;;;;;;4954785;28;19926;-76
2022/08/03 06:54:40;;;;;;;;;;;19.90;99.90;;;;;;4948079;28;19921;-76
2022/08/03 06:57:07;;;;;;;;;;;20.10;99.90;;;;;;4947785;28;20277;-75
2022/08/03 06:59:32;;;;;;;;;;;20.20;99.90;;;;;;4961226;28;19969;-76
2022/08/03 07:01:58;;;;;;;;;;;20.40;99.90;;;;;;4954205;28;20009;-76
2022/08/03 07:04:23;;;;;;;;;;;20.40;99.90;;;;;;4952973;28;20006;-75
2022/08/03 07:06:49;;;;;;;;;;;20.50;99.90;;;;;;4954547;28;20165;-76
2022/08/03 07:09:14;;;;;;;;;;;20.60;99.90;;;;;;4955565;28;20017;-76
2022/08/03 07:11:40;;;;;;;;;;;20.60;99.90;;;;;;4960003;28;20424;-76
2022/08/03 07:14:06;;;;;;;;;;;20.60;99.90;;;;;;4964304;28;19924;-76
2022/08/03 07:16:31;;;;;;;;;;;20.50;99.90;;;;;;4946546;28;20341;-77
2022/08/03 07:18:57;;;;;;;;;;;20.40;99.90;;;;;;4936273;28;20181;-76
2022/08/03 07:21:23;;;;;;;;;;;20.50;99.90;;;;;;4948477;28;19914;-76
2022/08/03 07:23:48;;;;;;;;;;;20.60;99.90;;;;;;4951327;28;19914;-76
2022/08/03 07:26:14;;;;;;;;;;;20.70;99.90;;;;;;4938126;28;20385;-75
2022/08/03 07:28:39;;;;;;;;;;;20.70;99.90;;;;;;4932298;28;20642;-74
2022/08/03 07:31:05;;;;;;;;;;;20.80;99.90;;;;;;4956294;28;19917;-75
2022/08/03 07:33:30;;;;;;;;;;;21.00;99.90;;;;;;4953117;28;19918;-76
2022/08/03 07:35:56;;;;;;;;;;;21.20;99.90;;;;;;4935485;28;19914;-75
2022/08/03 07:38:21;;;;;;;;;;;21.30;99.90;;;;;;4950616;28;19920;-76
2022/08/03 07:40:47;;;;;;;;;;;21.30;99.90;;;;;;4954025;28;19925;-76
2022/08/03 07:43:12;;;;;;;;;;;21.20;99.90;;;;;;4949994;28;19920;-76
2022/08/03 07:45:38;;;;;;;;;;;21.00;99.90;;;;;;4955417;28;19969;-76
2022/08/03 07:48:03;;;;;;;;;;;20.90;99.90;;;;;;4955676;28;19914;-76
2022/08/03 07:50:29;;;;;;;;;;;20.80;99.90;;;;;;4960602;28;19922;-76
2022/08/03 07:52:56;;;;;;;;;;;20.90;99.90;;;;;;4961073;28;20314;-76
2022/08/03 07:55:22;;;;;;;;;;;20.90;99.90;;;;;;4956420;28;20398;-76
2022/08/03 07:58:01;;;;;;;;;;;20.90;99.90;;;;;;4956730;28;19914;-76
2022/08/03 08:00:27;;;;;;;;;;;20.90;99.90;;;;;;4943546;28;20548;-76
2022/08/03 08:02:53;;;;;;;;;;;21.10;99.90;;;;;;4958721;28;20020;-75
2022/08/03 08:05:18;;;;;;;;;;;21.00;99.90;;;;;;4924801;28;21561;-76
2022/08/03 08:07:44;;;;;;;;;;;20.90;99.90;;;;;;4927470;28;19961;-76
2022/08/03 08:10:09;;;;;;;;;;;20.90;99.90;;;;;;4949558;28;19921;-78
2022/08/03 08:12:35;;;;;;;;;;;20.90;99.90;;;;;;4941910;28;19918;-75
2022/08/03 08:15:01;;;;;;;;;;;21.10;99.90;;;;;;4950751;28;19925;-76
2022/08/03 08:17:26;;;;;;;;;;;21.30;99.90;;;;;;4960915;28;19945;-76
2022/08/03 08:19:52;;;;;;;;;;;21.40;99.90;;;;;;4953120;28;19918;-76
2022/08/03 08:22:18;;;;;;;;;;;21.40;99.90;;;;;;4956113;28;19915;-76
2022/08/03 08:24:44;;;;;;;;;;;21.40;99.90;;;;;;4948604;28;20053;-75
2022/08/03 08:27:10;;;;;;;;;;;21.30;99.90;;;;;;4950315;28;20016;-76
2022/08/03 08:29:36;;;;;;;;;;;21.10;99.90;;;;;;4947767;28;19926;-77
2022/08/03 08:32:02;;;;;;;;;;;20.90;99.90;;;;;;4956603;28;19969;-77
2022/08/03 08:34:28;;;;;;;;;;;20.90;99.90;;;;;;4950783;28;20401;-76
2022/08/03 08:36:53;;;;;;;;;;;20.90;99.90;;;;;;4949342;28;19917;-77
2022/08/03 08:39:19;;;;;;;;;;;20.90;99.90;;;;;;4954587;28;19914;-77
2022/08/03 08:41:44;;;;;;;;;;;21.00;99.90;;;;;;4940436;28;19914;-76
2022/08/03 08:44:10;;;;;;;;;;;21.10;99.90;;;;;;4941373;28;19914;-76
2022/08/03 08:46:37;;;;;;;;;;;21.10;99.90;;;;;;4953349;28;19965;-77
2022/08/03 08:49:03;;;;;;;;;;;21.20;99.90;;;;;;4953973;28;19918;-75
2022/08/03 08:51:29;;;;;;;;;;;21.40;99.90;;;;;;4953082;28;19941;-77
2022/08/03 08:53:56;;;;;;;;;;;21.30;99.90;;;;;;4946209;28;19914;-75
2022/08/03 08:56:24;;;;;;;;;;;21.40;99.90;;;;;;4947326;28;19941;-76
2022/08/03 08:59:07;;;;;;;;;;;21.40;99.90;;;;;;4942815;28;20086;-77
2022/08/03 09:01:33;;;;;;;;;;;21.40;99.90;;;;;;4951630;28;19914;-76
2022/08/03 09:03:58;;;;;;;;;;;21.50;99.90;;;;;;4950061;28;19918;-75
2022/08/03 09:06:24;;;;;;;;;;;21.60;99.90;;;;;;4949805;28;19928;-75
2022/08/03 09:08:49;;;;;;;;;;;21.70;99.90;;;;;;4950511;28;20089;-74
2022/08/03 09:11:19;;;;;;;;;;;21.80;99.90;;;;;;4945974;28;19961;-76
2022/08/03 09:13:44;;;;;;;;;;;22.00;99.90;;;;;;4955119;28;19918;-75
2022/08/03 09:16:17;;;;;;;;;;;22.20;99.90;;;;;;4950259;28;20379;-75
2022/08/03 09:18:44;;;;;;;;;;;22.30;99.90;;;;;;4958302;28;19929;-74
2022/08/03 09:21:14;;;;;;;;;;;22.20;99.90;;;;;;4962882;28;20388;-74
2022/08/03 09:23:45;;;;;;;;;;;22.20;99.90;;;;;;4948607;28;19921;-76
2022/08/03 09:26:10;;;;;;;;;;;22.30;99.90;;;;;;4951803;28;20409;-76
2022/08/03 09:28:36;;;;;;;;;;;22.30;99.90;;;;;;4957252;28;19917;-75
2022/08/03 09:31:01;;;;;;;;;;;22.30;99.90;;;;;;4614622;28;10000598;-76
2022/08/03 09:33:27;;;;;;;;;;;22.30;99.90;;;;;;4932940;28;19922;-77
2022/08/03 09:35:55;;;;;;;;;;;22.40;99.90;;;;;;4951809;28;19973;-76
2022/08/03 09:38:27;;;;;;;;;;;22.60;99.90;;;;;;4949763;28;19917;-76
2022/08/03 09:40:54;;;;;;;;;;;22.50;99.90;;;;;;4947961;28;19925;-75
2022/08/03 09:43:20;;;;;;;;;;;22.60;99.90;;;;;;4956232;28;19913;-76
2022/08/03 09:45:46;;;;;;;;;;;22.70;99.90;;;;;;4955719;28;19964;-75
2022/08/03 09:48:25;;;;;;;;;;;22.70;99.90;;;;;;4937956;28;20000;-75
2022/08/03 09:50:55;;;;;;;;;;;22.80;99.90;;;;;;4952167;28;19922;-75
2022/08/03 09:53:20;;;;;;;;;;;22.80;99.90;;;;;;4955650;28;19961;-76
2022/08/03 09:55:56;;;;;;;;;;;22.70;99.90;;;;;;4957587;28;20398;-75
2022/08/03 09:58:22;;;;;;;;;;;22.70;99.90;;;;;;4957053;28;19913;-76
2022/08/03 10:00:57;;;;;;;;;;;22.80;99.90;;;;;;4956012;28;19915;-75
2022/08/03 10:03:23;;;;;;;;;;;22.90;99.90;;;;;;4940965;28;19933;-76
2022/08/03 10:05:49;;;;;;;;;;;23.10;99.90;;;;;;4954654;28;19960;-75
2022/08/03 10:08:15;;;;;;;;;;;23.00;99.90;;;;;;4944794;28;19993;-75
2022/08/03 10:10:42;;;;;;;;;;;23.00;99.90;;;;;;4949085;28;19945;-75
2022/08/03 10:13:09;;;;;;;;;;;22.90;99.90;;;;;;4957867;28;19964;-75
2022/08/03 10:15:34;;;;;;;;;;;23.00;99.90;;;;;;4955656;28;20020;-74
2022/08/03 10:18:00;;;;;;;;;;;23.50;99.90;;;;;;4955126;28;19924;-77
2022/08/03 10:20:26;;;;;;;;;;;23.70;99.90;;;;;;4944106;28;20354;-76
2022/08/03 10:22:52;;;;;;;;;;;24.00;99.90;;;;;;4958731;28;19910;-76
2022/08/03 10:25:17;;;;;;;;;;;24.10;99.90;;;;;;4959886;28;19918;-77
2022/08/03 10:27:46;;;;;;;;;;;24.30;99.90;;;;;;4959208;28;19910;-77
2022/08/03 10:30:12;;;;;;;;;;;24.80;99.90;;;;;;4943587;28;20278;-77
2022/08/03 10:32:38;;;;;;;;;;;25.00;99.90;;;;;;4956589;28;20598;-78
2022/08/03 10:35:14;;;;;;;;;;;25.20;99.90;;;;;;4960614;28;19914;-78
2022/08/03 10:37:44;;;;;;;;;;;25.70;99.90;;;;;;4956055;28;20273;-78
2022/08/03 10:40:18;;;;;;;;;;;26.00;99.90;;;;;;4950122;28;19956;-77
2022/08/03 10:42:44;;;;;;;;;;;25.90;99.90;;;;;;4957430;28;19949;-79
2022/08/03 10:45:16;;;;;;;;;;;26.20;99.90;;;;;;4960261;28;19996;-79
2022/08/03 10:47:42;;;;;;;;;;;26.30;99.90;;;;;;4942241;28;20017;-77
2022/08/03 10:50:08;;;;;;;;;;;26.30;99.90;;;;;;4943663;28;19926;-80
2022/08/03 10:52:33;;;;;;;;;;;26.20;99.90;;;;;;4957663;28;20000;-76
2022/08/03 10:57:44;;;;;;;;;;;26.40;99.90;;;;;;4955989;28;19969;-76
2022/08/03 11:00:11;;;;;;;;;;;26.40;99.90;;;;;;4955955;28;19914;-75
2022/08/03 11:02:55;;;;;;;;;;;26.40;99.90;;;;;;4957470;28;19918;-76
2022/08/03 11:05:24;;;;;;;;;;;26.70;99.90;;;;;;4956552;28;19961;-76
2022/08/03 11:07:50;;;;;;;;;;;26.90;99.90;;;;;;4960745;28;19961;-75
2022/08/03 11:10:35;;;;;;;;;;;27.10;99.90;;;;;;4939859;28;19965;-76
2022/08/03 11:13:08;;;;;;;;;;;27.60;99.90;;;;;;4942241;28;20390;-76
2022/08/03 11:15:34;;;;;;;;;;;28.00;99.90;;;;;;4954139;28;20012;-76
2022/08/03 11:18:10;;;;;;;;;;;27.90;99.90;;;;;;4954426;28;19914;-76
2022/08/03 11:20:52;;;;;;;;;;;28.10;99.90;;;;;;4954262;28;20281;-76
2022/08/03 11:23:19;;;;;;;;;;;28.00;99.90;;;;;;4955759;28;19961;-77
2022/08/03 11:26:04;;;;;;;;;;;28.30;99.90;;;;;;4958311;28;19921;-76
2022/08/03 11:28:29;;;;;;;;;;;28.40;99.90;;;;;;4958310;28;19914;-75
2022/08/03 11:30:55;;;;;;;;;;;28.30;99.90;;;;;;4959331;28;20404;-76
2022/08/03 11:33:30;;;;;;;;;;;28.10;99.90;;;;;;4945125;28;19915;-76
2022/08/03 11:35:59;;;;;;;;;;;27.90;99.90;;;;;;4951084;28;19925;-75
2022/08/03 11:38:25;;;;;;;;;;;27.70;99.90;;;;;;4955342;28;19942;-75
2022/08/03 11:40:51;;;;;;;;;;;27.50;99.90;;;;;;4946904;28;19964;-76
2022/08/03 11:43:20;;;;;;;;;;;27.60;99.90;;;;;;4955018;28;21491;-76
2022/08/03 11:45:56;;;;;;;;;;;27.60;99.90;;;;;;4959249;28;19953;-76
2022/08/03 11:48:21;;;;;;;;;;;27.90;99.90;;;;;;4959100;28;19913;-81
2022/08/03 11:50:47;;;;;;;;;;;28.20;99.90;;;;;;4951352;28;19918;-78
2022/08/03 11:53:14;;;;;;;;;;;28.20;99.90;;;;;;4958586;28;19914;-76
2022/08/03 11:55:42;;;;;;;;;;;28.10;99.90;;;;;;4961286;28;20488;-76
2022/08/03 11:58:07;;;;;;;;;;;28.10;99.90;;;;;;4947151;28;20009;-77
2022/08/03 12:00:33;;;;;;;;;;;28.00;99.90;;;;;;4961237;28;20009;-76
2022/08/03 12:03:03;;;;;;;;;;;27.90;99.90;;;;;;4964797;28;19966;-75
2022/08/03 12:05:33;;;;;;;;;;;27.50;99.90;;;;;;4957982;28;19972;-77
2022/08/03 12:07:58;;;;;;;;;;;27.40;99.90;;;;;;4948798;28;19921;-77
2022/08/03 12:10:25;;;;;;;;;;;27.10;99.90;;;;;;4931450;28;19922;-76
2022/08/03 12:12:57;;;;;;;;;;;27.00;99.90;;;;;;4945236;28;20037;-77
2022/08/03 12:15:24;;;;;;;;;;;26.90;99.90;;;;;;4948024;28;19914;-76
2022/08/03 12:17:49;;;;;;;;;;;27.10;99.90;;;;;;4955399;28;20028;-77
2022/08/03 12:20:20;;;;;;;;;;;26.90;99.90;;;;;;4945607;28;19914;-75
2022/08/03 12:22:45;;;;;;;;;;;26.70;99.90;;;;;;4926653;28;20000;-77
2022/08/03 12:25:19;;;;;;;;;;;26.50;99.90;;;;;;4944830;28;19917;-77
2022/08/03 12:27:45;;;;;;;;;;;26.70;99.90;;;;;;4961144;28;21061;-77
2022/08/03 12:30:11;;;;;;;;;;;27.30;99.90;;;;;;4943316;28;19929;-75
2022/08/03 12:32:36;;;;;;;;;;;27.60;99.90;;;;;;4955902;28;19992;-77
2022/08/03 12:35:04;;;;;;;;;;;27.60;99.90;;;;;;4946456;28;20017;-76
2022/08/03 12:37:30;;;;;;;;;;;27.60;99.90;;;;;;4952857;28;20332;-75
2022/08/03 12:40:00;;;;;;;;;;;27.50;99.90;;;;;;4954403;28;20575;-76
2022/08/03 12:42:29;;;;;;;;;;;27.40;99.90;;;;;;4605498;28;10000119;-74
2022/08/03 12:44:54;;;;;;;;;;;27.20;99.90;;;;;;4960058;28;19917;-75
2022/08/03 12:47:20;;;;;;;;;;;27.00;99.90;;;;;;4949562;28;19914;-75
2022/08/03 12:49:46;;;;;;;;;;;27.10;99.90;;;;;;4948702;28;20156;-75
2022/08/03 12:52:12;;;;;;;;;;;27.00;99.90;;;;;;4963365;28;20009;-74
2022/08/03 12:54:37;;;;;;;;;;;27.20;99.90;;;;;;4959931;28;20376;-75
2022/08/03 12:57:03;;;;;;;;;;;27.00;99.90;;;;;;4953791;28;20475;-74
2022/08/03 12:59:30;;;;;;;;;;;26.90;99.90;;;;;;4965800;28;19995;-77
2022/08/03 13:01:55;;;;;;;;;;;27.10;99.90;;;;;;4971587;28;19910;-75
2022/08/03 13:04:25;;;;;;;;;;;26.90;99.90;;;;;;4957435;28;19984;-74
2022/08/03 13:07:01;;;;;;;;;;;26.90;99.90;;;;;;4950460;28;19926;-75
2022/08/03 13:09:27;;;;;;;;;;;27.00;99.90;;;;;;4958712;28;19957;-75
2022/08/03 13:12:06;;;;;;;;;;;26.90;99.90;;;;;;4959522;28;20425;-75
2022/08/03 13:14:31;;;;;;;;;;;26.90;99.90;;;;;;4958255;28;19914;-74
2022/08/03 13:16:57;;;;;;;;;;;26.70;99.90;;;;;;4954104;28;20538;-75
2022/08/03 13:19:22;;;;;;;;;;;26.40;99.90;;;;;;4957830;28;19914;-74
2022/08/03 13:21:48;;;;;;;;;;;26.00;99.90;;;;;;4951535;28;19929;-75
2022/08/03 13:24:14;;;;;;;;;;;25.90;99.90;;;;;;4944573;28;19915;-74
2022/08/03 13:26:40;;;;;;;;;;;25.90;99.90;;;;;;4951105;28;19970;-75
2022/08/03 13:29:05;;;;;;;;;;;25.90;99.90;;;;;;4939929;28;19922;-75
2022/08/03 13:31:31;;;;;;;;;;;25.90;99.90;;;;;;4951837;28;19914;-75
2022/08/03 13:33:56;;;;;;;;;;;26.10;99.90;;;;;;4958749;28;19993;-75
2022/08/03 13:36:23;;;;;;;;;;;26.10;99.90;;;;;;4940764;28;19921;-75
2022/08/03 13:38:49;;;;;;;;;;;25.80;99.90;;;;;;4943380;28;19921;-75
2022/08/03 13:41:14;;;;;;;;;;;25.80;99.90;;;;;;4957594;28;20297;-74
2022/08/03 13:43:40;;;;;;;;;;;25.70;99.90;;;;;;4957748;28;20682;-75
2022/08/03 13:46:05;;;;;;;;;;;25.80;99.90;;;;;;4961070;28;20297;-74
2022/08/03 13:48:31;;;;;;;;;;;25.80;99.90;;;;;;4962303;28;19969;-75
2022/08/03 13:50:57;;;;;;;;;;;25.90;99.90;;;;;;4958361;28;20012;-74
2022/08/03 13:53:22;;;;;;;;;;;25.80;99.90;;;;;;4957396;28;20004;-75
2022/08/03 13:55:48;;;;;;;;;;;25.80;99.90;;;;;;4958584;28;19917;-75
2022/08/03 13:58:13;;;;;;;;;;;25.70;99.90;;;;;;4959432;28;19925;-75
2022/08/03 14:00:39;;;;;;;;;;;25.80;99.90;;;;;;4955780;28;19957;-76
2022/08/03 14:03:04;;;;;;;;;;;25.80;99.90;;;;;;4956225;28;20287;-76
2022/08/03 14:05:33;;;;;;;;;;;25.70;99.90;;;;;;4957585;28;19921;-75
2022/08/03 14:07:59;;;;;;;;;;;25.40;99.90;;;;;;4952599;28;20057;-75
2022/08/03 14:10:25;;;;;;;;;;;25.30;99.90;;;;;;4949822;28;20843;-74
2022/08/03 14:12:51;;;;;;;;;;;25.40;99.90;;;;;;4956491;28;19913;-75
2022/08/03 14:15:16;;;;;;;;;;;25.60;99.90;;;;;;4950784;28;19925;-74
2022/08/03 14:17:42;;;;;;;;;;;26.00;99.90;;;;;;4956962;28;19914;-75
2022/08/03 14:20:07;;;;;;;;;;;26.10;99.90;;;;;;4947311;28;19926;-75
2022/08/03 14:22:33;;;;;;;;;;;26.40;99.90;;;;;;4952046;28;20239;-76
2022/08/03 14:24:58;;;;;;;;;;;26.50;99.90;;;;;;4956946;28;19973;-75